Belmont, Wisconsin
Current Conditions -  °F | °C
As of 7:55 AM on Wednesday 28 Jan 2015 (Local Time) from KPVB Reporting Station
Overcast Overcast  
Wind Chill: 16°   Ceiling: 500
Heat Index: 27°   Visibility: 5mi
Dew Point: 25°   Wind: 13mph
Humidity: 93%   Direction: 140°SE
Pressure: 30.17"   Gusts: NA
Location:  42.74°N, 90.33°W
Report Text: KPVB 281355Z AUTO 14011KT 5SM OVC005 M03/M04 A3017 RMK AO1 T10301040
Loading
Personal Weather Stations






























Interactive Weather Map New forecast layout! Learn more

10-Day Weather Forecast

Advertisements
Track Severe Weather on mobile